createdAt,value
2017-07-14T00:01:15.359Z,5.00
2017-07-14T00:03:43.722Z,7.73
2017-07-14T00:06:12.395Z,8.03
2017-07-14T00:08:40.725Z,11.20
2017-07-14T00:11:09.078Z,16.83
2017-07-14T00:13:38.209Z,4.67
2017-07-14T00:16:06.548Z,7.60
2017-07-14T00:18:34.900Z,7.50
2017-07-14T00:21:03.509Z,12.17
2017-07-14T00:23:31.869Z,5.50
2017-07-14T00:26:00.191Z,7.47
2017-07-14T00:28:28.885Z,11.53
2017-07-14T00:30:57.236Z,4.67
2017-07-14T00:33:25.611Z,7.53
2017-07-14T00:35:54.702Z,6.27
2017-07-14T00:38:23.063Z,11.50
2017-07-14T00:40:51.437Z,11.17
2017-07-14T00:43:20.172Z,5.00
2017-07-14T00:45:48.520Z,10.10
2017-07-14T00:48:16.897Z,10.23
2017-07-14T00:50:45.599Z,6.43
2017-07-14T00:53:13.956Z,13.60
2017-07-14T00:55:42.313Z,6.80
2017-07-14T00:58:11.266Z,6.67
2017-07-14T01:00:39.604Z,14.00
2017-07-14T01:03:07.959Z,5.27
2017-07-14T01:05:36.602Z,7.03
2017-07-14T01:08:05.708Z,9.33
2017-07-14T01:10:34.054Z,7.40
2017-07-14T01:13:02.719Z,9.80
2017-07-14T01:15:31.068Z,8.10
2017-07-14T01:17:59.412Z,5.23
2017-07-14T01:20:28.990Z,4.93
2017-07-14T01:22:57.361Z,7.40
2017-07-14T01:25:25.707Z,11.20
2017-07-14T01:27:54.371Z,4.70
2017-07-14T01:30:23.468Z,18.30
2017-07-14T01:32:52.571Z,7.97
2017-07-14T01:35:22.023Z,8.60
2017-07-14T01:37:50.355Z,6.50
2017-07-14T01:40:19.447Z,9.70
2017-07-14T01:42:49.075Z,7.30
2017-07-14T01:45:17.442Z,14.53
2017-07-14T01:47:45.786Z,7.63
2017-07-14T01:50:14.439Z,6.00
2017-07-14T01:52:42.765Z,5.70
2017-07-14T01:55:11.100Z,13.20
2017-07-14T01:57:39.748Z,8.37
2017-07-14T02:00:08.089Z,11.30
2017-07-14T02:02:36.420Z,5.43
2017-07-14T02:05:05.417Z,4.67
2017-07-14T02:07:33.766Z,15.20
2017-07-14T02:10:02.904Z,10.20
2017-07-14T02:12:31.599Z,6.57
2017-07-14T02:14:59.934Z,6.03
2017-07-14T02:17:28.278Z,11.50
2017-07-14T02:19:57.096Z,8.63
2017-07-14T02:22:25.417Z,6.90
2017-07-14T02:24:53.759Z,5.50
2017-07-14T02:27:22.758Z,4.07
2017-07-14T02:29:51.116Z,6.53
2017-07-14T02:32:19.471Z,4.57
2017-07-14T02:34:48.389Z,17.87
2017-07-14T02:37:16.765Z,5.40
2017-07-14T02:39:45.098Z,5.23
2017-07-14T02:42:13.725Z,5.10
2017-07-14T02:44:42.076Z,4.60
2017-07-14T02:47:11.261Z,6.70
2017-07-14T02:49:40.118Z,16.00
2017-07-14T02:52:08.489Z,10.77
2017-07-14T02:54:36.846Z,4.73
2017-07-14T02:57:05.573Z,5.43
2017-07-14T02:59:33.964Z,6.67
2017-07-14T03:02:02.288Z,10.90
2017-07-14T03:04:30.935Z,8.63
2017-07-14T03:06:59.291Z,9.70
2017-07-14T03:09:27.635Z,6.00
2017-07-14T03:11:56.700Z,8.03
2017-07-14T03:14:25.058Z,7.90
2017-07-14T03:16:53.412Z,11.33
2017-07-14T03:19:22.313Z,5.00
2017-07-14T03:21:50.645Z,5.80
2017-07-14T03:24:19.798Z,5.30
2017-07-14T03:26:48.581Z,7.80
2017-07-14T03:29:16.917Z,10.17
2017-07-14T03:31:45.252Z,5.67
2017-07-14T03:34:14.265Z,16.20
2017-07-14T03:36:42.623Z,5.80
2017-07-14T03:39:10.972Z,15.40
2017-07-14T03:41:39.867Z,5.20
2017-07-14T03:44:08.203Z,7.73
2017-07-14T03:46:36.528Z,8.63
2017-07-14T03:49:05.923Z,10.37
2017-07-14T03:51:34.293Z,5.80
2017-07-14T03:54:03.391Z,9.23
2017-07-14T03:56:33.224Z,19.93
2017-07-14T03:59:01.556Z,5.00
2017-07-14T04:01:29.904Z,5.07
2017-07-14T04:03:58.544Z,8.53
2017-07-14T04:06:27.671Z,13.03
2017-07-14T04:08:56.010Z,5.40
2017-07-14T04:11:24.943Z,12.83
2017-07-14T04:13:53.316Z,9.77
2017-07-14T04:16:21.653Z,6.00
2017-07-14T04:18:50.817Z,13.57
2017-07-14T04:21:19.147Z,6.10
2017-07-14T04:23:47.500Z,9.17
2017-07-14T04:26:16.233Z,5.80
2017-07-14T04:28:44.590Z,7.17
2017-07-14T04:31:13.705Z,15.43
2017-07-14T04:33:42.489Z,11.33
2017-07-14T04:36:10.835Z,10.53
2017-07-14T04:38:39.196Z,10.10
2017-07-14T04:41:08.136Z,9.20
2017-07-14T04:43:36.487Z,8.43
2017-07-14T04:46:04.824Z,6.50
2017-07-14T04:48:33.459Z,6.83
2017-07-14T04:51:01.804Z,10.83
2017-07-14T04:53:30.149Z,21.03
2017-07-14T04:55:58.805Z,5.63
2017-07-14T04:58:27.127Z,5.80
2017-07-14T05:00:55.453Z,10.57
2017-07-14T05:03:24.443Z,11.53
2017-07-14T05:05:52.779Z,9.07
2017-07-14T05:08:21.125Z,9.23
2017-07-14T05:10:50.520Z,7.60
2017-07-14T05:13:18.887Z,5.00
2017-07-14T05:15:47.257Z,7.27
2017-07-14T05:18:15.988Z,4.87
2017-07-14T05:20:44.358Z,6.63
2017-07-14T05:23:13.474Z,8.60
2017-07-14T05:25:42.444Z,6.73
2017-07-14T05:28:10.793Z,22.33
2017-07-14T05:30:39.131Z,10.20
2017-07-14T05:33:07.809Z,7.83
2017-07-14T05:35:36.162Z,20.53
2017-07-14T05:38:04.500Z,17.23
2017-07-14T05:40:33.328Z,23.03
2017-07-14T05:43:01.677Z,19.83
2017-07-14T05:45:30.021Z,24.57
2017-07-14T05:47:59.180Z,19.40
2017-07-14T05:50:27.527Z,11.00
2017-07-14T05:52:55.866Z,30.00
2017-07-14T05:55:24.465Z,18.37
2017-07-14T05:57:52.803Z,23.33
2017-07-14T06:00:21.162Z,36.97
2017-07-14T06:02:50.086Z,9.17
2017-07-14T06:05:18.409Z,13.53
2017-07-14T06:07:46.786Z,13.27
2017-07-14T06:10:15.684Z,10.87
2017-07-14T06:12:44.074Z,8.53
2017-07-14T06:15:12.417Z,8.90
2017-07-14T06:17:41.193Z,25.33
2017-07-14T06:20:09.555Z,19.63
2017-07-14T06:22:38.693Z,13.10
2017-07-14T06:25:07.496Z,13.30
2017-07-14T06:27:35.847Z,11.73
2017-07-14T06:30:04.186Z,12.10
2017-07-14T06:32:33.105Z,14.17
2017-07-14T06:35:01.455Z,12.70
2017-07-14T06:37:29.794Z,9.33
2017-07-14T06:39:58.452Z,11.10
2017-07-14T06:42:26.815Z,20.90
2017-07-14T06:44:55.176Z,12.30
2017-07-14T06:47:23.787Z,7.40
2017-07-14T06:49:52.117Z,16.27
2017-07-14T06:52:20.476Z,6.53
2017-07-14T06:54:49.667Z,2.50
2017-07-14T06:57:18.014Z,3.90
2017-07-14T06:59:47.122Z,5.97
2017-07-14T07:02:15.739Z,13.90
2017-07-14T07:04:44.061Z,8.27
2017-07-14T07:07:12.404Z,13.60
2017-07-14T07:09:41.024Z,8.40
2017-07-14T07:12:10.152Z,5.43
2017-07-14T07:14:38.516Z,8.20
2017-07-14T07:17:07.619Z,14.30
2017-07-14T07:19:35.960Z,4.37
2017-07-14T07:22:04.321Z,12.57
2017-07-14T07:24:33.002Z,10.83
2017-07-14T07:27:01.338Z,7.97
2017-07-14T07:29:29.665Z,12.10
2017-07-14T07:31:58.498Z,5.33
2017-07-14T07:34:26.843Z,6.43
2017-07-14T07:36:55.225Z,6.10
2017-07-14T07:39:24.485Z,10.43
2017-07-14T07:41:52.848Z,9.23
2017-07-14T07:44:21.204Z,6.00
2017-07-14T07:46:56.206Z,6.63
2017-07-14T07:49:25.486Z,4.23
2017-07-14T07:51:53.836Z,9.63
2017-07-14T07:54:22.509Z,13.27
2017-07-14T07:56:51.625Z,9.70
2017-07-14T07:59:19.955Z,3.60
2017-07-14T08:01:48.698Z,12.27
2017-07-14T08:04:17.017Z,8.63
2017-07-14T08:06:45.371Z,9.20
2017-07-14T08:09:14.002Z,7.47
2017-07-14T08:11:42.343Z,8.30
2017-07-14T08:14:10.687Z,3.60
2017-07-14T08:16:39.342Z,5.03
2017-07-14T08:19:07.715Z,2.23
2017-07-14T08:21:36.068Z,8.57
2017-07-14T08:24:05.425Z,6.50
2017-07-14T08:26:33.779Z,6.00
2017-07-14T08:29:02.135Z,10.57
2017-07-14T08:31:30.751Z,6.23
2017-07-14T08:33:59.116Z,9.83
2017-07-14T08:36:27.472Z,3.13
2017-07-14T08:38:56.306Z,8.80
2017-07-14T08:41:24.645Z,11.30
2017-07-14T08:43:54.005Z,9.07
2017-07-14T08:46:22.863Z,4.20
2017-07-14T08:48:51.211Z,18.03
2017-07-14T08:51:19.560Z,4.37
2017-07-14T08:53:48.211Z,9.77
2017-07-14T08:56:16.550Z,8.90
2017-07-14T08:58:44.889Z,7.93
2017-07-14T09:01:14.280Z,5.97
2017-07-14T09:03:42.613Z,11.60
2017-07-14T09:06:10.961Z,8.80
2017-07-14T09:08:39.947Z,4.50
2017-07-14T09:11:08.285Z,5.77
2017-07-14T09:13:36.640Z,8.80
2017-07-14T09:16:05.255Z,7.13
2017-07-14T09:18:33.603Z,8.70
2017-07-14T09:21:01.949Z,7.73
2017-07-14T09:23:30.834Z,7.23
2017-07-14T09:25:59.203Z,4.97
2017-07-14T09:28:27.564Z,10.03
2017-07-14T09:30:56.492Z,9.03
2017-07-14T09:33:24.840Z,6.03
2017-07-14T09:35:53.180Z,7.53
2017-07-14T09:38:22.127Z,5.90
2017-07-14T09:40:50.488Z,10.03
2017-07-14T09:43:18.829Z,15.37
2017-07-14T09:45:48.009Z,6.20
2017-07-14T09:48:16.352Z,5.17
2017-07-14T09:50:45.463Z,4.93
2017-07-14T09:53:14.451Z,2.90
2017-07-14T09:55:42.824Z,6.07
2017-07-14T09:58:11.959Z,6.10
2017-07-14T10:00:40.920Z,8.57
2017-07-14T10:03:09.254Z,5.00
2017-07-14T10:05:37.583Z,11.77
2017-07-14T10:08:06.221Z,4.60
2017-07-14T10:10:34.556Z,9.40
2017-07-14T10:13:02.906Z,5.83
2017-07-14T10:15:31.595Z,5.43
2017-07-14T10:17:59.929Z,7.30
2017-07-14T10:20:28.258Z,4.70
2017-07-14T10:23:09.963Z,3.97
2017-07-14T10:25:38.324Z,5.60
2017-07-14T10:28:07.451Z,5.40
2017-07-14T10:30:36.427Z,6.40
2017-07-14T10:33:04.757Z,9.03
2017-07-14T10:35:33.108Z,6.83
2017-07-14T10:38:01.871Z,4.87
2017-07-14T10:40:30.222Z,5.67
2017-07-14T10:42:58.561Z,2.70
2017-07-14T10:45:27.327Z,5.13
2017-07-14T10:47:55.659Z,5.40
2017-07-14T10:50:24.018Z,6.50
2017-07-14T10:52:52.865Z,3.33
2017-07-14T10:55:21.201Z,5.63
2017-07-14T10:57:49.535Z,8.57
2017-07-14T11:00:18.152Z,11.40
2017-07-14T11:02:46.723Z,9.17
2017-07-14T11:05:15.057Z,3.93
2017-07-14T11:07:43.870Z,3.23
2017-07-14T11:10:12.215Z,2.23
2017-07-14T11:12:40.554Z,2.87
2017-07-14T11:15:09.718Z,8.13
2017-07-14T11:17:38.087Z,8.80
2017-07-14T11:20:07.198Z,3.93
2017-07-14T11:22:35.911Z,3.07
2017-07-14T11:25:04.250Z,4.90
2017-07-14T11:27:32.610Z,2.93
2017-07-14T11:30:02.072Z,8.07
2017-07-14T11:32:30.420Z,4.77
2017-07-14T11:34:58.771Z,7.63
2017-07-14T11:37:27.701Z,5.70
2017-07-14T11:39:56.100Z,2.80
2017-07-14T11:42:24.508Z,7.07
2017-07-14T11:44:53.165Z,13.67
2017-07-14T11:47:21.537Z,6.93
2017-07-14T11:49:49.869Z,5.93
2017-07-14T11:52:18.785Z,9.37
2017-07-14T11:54:47.123Z,13.77
2017-07-14T11:57:15.452Z,5.40
2017-07-14T11:59:44.441Z,8.37
2017-07-14T12:02:12.817Z,5.27
2017-07-14T12:04:41.159Z,10.40
2017-07-14T12:07:10.014Z,9.00
2017-07-14T12:09:38.393Z,6.53
2017-07-14T12:12:06.738Z,2.83
2017-07-14T12:14:35.521Z,4.70
2017-07-14T12:17:03.870Z,3.43
2017-07-14T12:19:32.235Z,2.80
2017-07-14T12:22:01.312Z,3.37
2017-07-14T12:24:29.687Z,15.70
2017-07-14T12:26:58.019Z,8.70
2017-07-14T12:29:27.647Z,6.27
2017-07-14T12:31:55.991Z,4.20
2017-07-14T12:34:24.337Z,9.70
2017-07-14T12:36:52.991Z,3.77
2017-07-14T12:39:21.353Z,3.07
2017-07-14T12:41:49.710Z,7.23
2017-07-14T12:44:18.431Z,5.83
2017-07-14T12:46:47.526Z,4.57
2017-07-14T12:49:16.617Z,7.40
2017-07-14T12:51:45.289Z,6.90
2017-07-14T12:54:13.621Z,13.33
2017-07-14T12:56:41.962Z,3.50
2017-07-14T12:59:10.855Z,4.50
2017-07-14T13:01:39.181Z,4.70
2017-07-14T13:04:07.523Z,4.93
2017-07-14T13:06:36.508Z,6.63
2017-07-14T13:09:04.882Z,6.47
2017-07-14T13:11:33.997Z,8.30
2017-07-14T13:14:02.885Z,8.50
2017-07-14T13:16:31.234Z,3.07
2017-07-14T13:18:59.585Z,14.73
2017-07-14T13:21:28.235Z,2.70
2017-07-14T13:23:56.614Z,3.53
2017-07-14T13:26:24.990Z,8.30
2017-07-14T13:28:53.853Z,9.70
2017-07-14T13:31:22.206Z,10.37
2017-07-14T13:33:50.550Z,9.30
2017-07-14T13:36:19.532Z,11.17
2017-07-14T13:38:47.919Z,4.30
2017-07-14T13:41:16.258Z,4.90
2017-07-14T13:43:45.188Z,4.50
2017-07-14T13:46:13.554Z,12.40
2017-07-14T13:48:41.906Z,6.73
2017-07-14T13:51:10.573Z,6.73
2017-07-14T13:53:38.904Z,5.20
2017-07-14T13:56:07.258Z,3.13
2017-07-14T13:58:36.887Z,11.50
2017-07-14T14:01:05.222Z,7.20
2017-07-14T14:03:33.568Z,7.07
2017-07-14T14:06:02.212Z,3.67
2017-07-14T14:08:30.550Z,4.07
2017-07-14T14:10:58.907Z,4.53
2017-07-14T14:13:27.766Z,8.33
2017-07-14T14:15:56.140Z,6.40
2017-07-14T14:18:24.488Z,6.47
2017-07-14T14:20:53.342Z,4.73
2017-07-14T14:23:21.685Z,4.30
2017-07-14T14:25:50.006Z,4.50
2017-07-14T14:28:18.707Z,8.00
2017-07-14T14:30:47.050Z,10.80
2017-07-14T14:33:15.404Z,11.53
2017-07-14T14:35:44.291Z,4.57
2017-07-14T14:38:12.663Z,3.20
2017-07-14T14:40:41.814Z,4.47
2017-07-14T14:43:10.567Z,11.53
2017-07-14T14:45:38.910Z,5.30
2017-07-14T14:48:08.089Z,11.40
2017-07-14T14:50:36.688Z,8.63
2017-07-14T14:53:05.028Z,6.53
2017-07-14T14:55:33.373Z,22.30
2017-07-14T14:58:02.428Z,6.00
2017-07-14T15:00:30.767Z,8.20
2017-07-14T15:02:59.102Z,3.27
2017-07-14T15:05:27.822Z,10.47
2017-07-14T15:07:56.915Z,3.13
2017-07-14T15:10:26.014Z,6.20
2017-07-14T15:12:55.645Z,3.30
2017-07-14T15:15:23.971Z,2.70
2017-07-14T15:17:52.326Z,8.03
2017-07-14T15:20:21.177Z,4.10
2017-07-14T15:22:50.284Z,11.83
2017-07-14T15:25:18.613Z,7.30
2017-07-14T15:27:47.367Z,8.50
2017-07-14T15:30:15.685Z,10.30
2017-07-14T15:32:44.022Z,4.30
2017-07-14T15:35:12.634Z,6.40
2017-07-14T15:37:40.954Z,8.10
2017-07-14T15:40:09.330Z,8.90
2017-07-14T15:42:38.330Z,9.10
2017-07-14T15:45:07.437Z,5.13
2017-07-14T15:47:35.770Z,3.40
2017-07-14T15:50:04.514Z,5.53
2017-07-14T15:52:32.854Z,6.83
2017-07-14T15:55:01.184Z,6.27
2017-07-14T15:57:29.939Z,2.97
2017-07-14T15:59:58.266Z,5.57
2017-07-14T16:02:26.606Z,7.27
2017-07-14T16:04:55.381Z,12.23
2017-07-14T16:07:23.712Z,14.07
2017-07-14T16:09:52.057Z,7.40
2017-07-14T16:12:20.849Z,7.97
2017-07-14T16:14:49.180Z,14.20
2017-07-14T16:17:17.524Z,5.27
2017-07-14T16:19:46.223Z,8.80
2017-07-14T16:22:14.568Z,10.03
2017-07-14T16:24:42.917Z,3.20
2017-07-14T16:27:11.779Z,5.43
2017-07-14T16:29:40.137Z,4.87
2017-07-14T16:32:08.477Z,4.93
2017-07-14T16:34:37.186Z,19.20
2017-07-14T16:37:05.515Z,7.07
2017-07-14T16:39:33.883Z,8.93
2017-07-14T16:42:02.513Z,4.40
2017-07-14T16:44:30.891Z,7.70
2017-07-14T16:46:59.310Z,2.97
2017-07-14T16:49:28.321Z,3.57
2017-07-14T16:51:56.654Z,6.80
2017-07-14T16:54:25.016Z,4.67
2017-07-14T16:56:53.635Z,7.20
2017-07-14T16:59:21.971Z,9.07
2017-07-14T17:01:50.320Z,8.57
2017-07-14T17:04:18.997Z,15.73
2017-07-14T17:06:47.359Z,5.87
2017-07-14T17:09:15.686Z,4.73
2017-07-14T17:11:44.806Z,9.60
2017-07-14T17:14:13.189Z,5.67
2017-07-14T17:16:41.532Z,9.87
2017-07-14T17:19:10.435Z,5.87
2017-07-14T17:21:38.765Z,5.67
2017-07-14T17:24:07.120Z,6.63
2017-07-14T17:26:35.731Z,4.10
2017-07-14T17:29:04.072Z,6.00
2017-07-14T17:31:33.177Z,4.40
2017-07-14T17:34:02.162Z,12.60
2017-07-14T17:36:30.515Z,7.23
2017-07-14T17:38:59.617Z,9.83
2017-07-14T17:41:29.043Z,10.40
2017-07-14T17:43:57.390Z,4.63
2017-07-14T17:46:25.768Z,10.40
2017-07-14T17:48:54.462Z,8.30
2017-07-14T17:51:22.788Z,6.53
2017-07-14T17:53:51.126Z,8.90
2017-07-14T17:56:21.085Z,12.13
2017-07-14T17:58:49.418Z,9.00
2017-07-14T18:01:17.765Z,10.93
2017-07-14T18:03:46.432Z,10.93
2017-07-14T18:06:14.769Z,15.20
2017-07-14T18:08:43.886Z,7.27
2017-07-14T18:11:12.669Z,13.33
2017-07-14T18:13:41.003Z,8.57
2017-07-14T18:16:09.342Z,8.90
2017-07-14T18:18:38.304Z,16.23
2017-07-14T18:21:06.626Z,7.40
2017-07-14T18:23:34.969Z,5.33
2017-07-14T18:26:03.643Z,12.97
2017-07-14T18:28:32.750Z,10.57
2017-07-14T18:31:01.102Z,7.27
2017-07-14T18:33:30.009Z,7.77
2017-07-14T18:35:58.392Z,11.80
2017-07-14T18:38:27.518Z,15.60
2017-07-14T18:40:56.477Z,21.10
2017-07-14T18:43:24.810Z,16.70
2017-07-14T18:45:53.197Z,15.47
2017-07-14T18:48:21.915Z,11.43
2017-07-14T18:50:50.268Z,15.20
2017-07-14T18:53:18.655Z,15.80
2017-07-14T18:55:47.389Z,15.20
2017-07-14T18:58:15.754Z,12.23
2017-07-14T19:00:44.992Z,14.93
2017-07-14T19:03:13.676Z,16.70
2017-07-14T19:05:42.058Z,14.33
2017-07-14T19:08:10.412Z,16.03
2017-07-14T19:10:39.057Z,15.70
2017-07-14T19:13:07.408Z,26.47
2017-07-14T19:15:35.750Z,20.10
2017-07-14T19:18:05.387Z,19.37
2017-07-14T19:20:33.775Z,22.10
2017-07-14T19:23:02.161Z,21.63
2017-07-14T19:25:31.431Z,23.50
2017-07-14T19:27:59.779Z,25.27
2017-07-14T19:30:28.887Z,20.40
2017-07-14T19:32:57.559Z,22.93
2017-07-14T19:35:26.659Z,19.53
2017-07-14T19:37:55.753Z,28.33
2017-07-14T19:40:24.567Z,26.57
2017-07-14T19:42:52.927Z,28.43
2017-07-14T19:45:21.284Z,22.80
2017-07-14T19:47:50.244Z,19.17
2017-07-14T19:50:18.598Z,24.30
2017-07-14T19:52:46.963Z,23.60
2017-07-14T19:55:15.875Z,25.60
2017-07-14T19:57:44.242Z,25.83
2017-07-14T20:00:12.593Z,22.67
2017-07-14T20:02:41.337Z,24.73
2017-07-14T20:05:09.690Z,23.90
2017-07-14T20:07:38.798Z,20.63
2017-07-14T20:10:07.994Z,21.70
2017-07-14T20:12:36.356Z,20.80
2017-07-14T20:15:04.725Z,19.80
2017-07-14T20:17:33.659Z,21.53
2017-07-14T20:20:02.014Z,24.37
2017-07-14T20:22:30.346Z,20.23
2017-07-14T20:24:59.081Z,21.80
2017-07-14T20:27:27.452Z,26.03
2017-07-14T20:29:56.608Z,19.50
2017-07-14T20:32:25.384Z,20.57
2017-07-14T20:34:53.739Z,22.30
2017-07-14T20:37:22.086Z,28.23
2017-07-14T20:39:50.716Z,20.20
2017-07-14T20:42:19.065Z,33.70
2017-07-14T20:44:47.417Z,19.50
2017-07-14T20:47:16.256Z,23.10
2017-07-14T20:49:44.620Z,26.10
2017-07-14T20:52:13.006Z,27.03
2017-07-14T20:54:41.971Z,24.27
2017-07-14T20:57:10.330Z,23.00
2017-07-14T20:59:38.666Z,26.47
2017-07-14T21:02:07.531Z,25.50
2017-07-14T21:04:35.878Z,28.63
2017-07-14T21:07:04.227Z,23.97
2017-07-14T21:09:32.983Z,26.90
2017-07-14T21:12:01.403Z,25.00
2017-07-14T21:14:29.761Z,27.70
2017-07-14T21:16:58.591Z,27.20
2017-07-14T21:19:26.929Z,32.77
2017-07-14T21:21:55.294Z,22.83
2017-07-14T21:24:24.074Z,22.03
2017-07-14T21:26:52.441Z,23.13
2017-07-14T21:29:20.806Z,27.50
2017-07-14T21:31:49.590Z,24.50
2017-07-14T21:34:17.939Z,30.20
2017-07-14T21:36:46.274Z,25.17
2017-07-14T21:39:15.366Z,21.97
2017-07-14T21:41:43.738Z,22.50
2017-07-14T21:44:12.842Z,28.47
2017-07-14T21:46:42.353Z,30.23
2017-07-14T21:49:10.691Z,28.37
2017-07-14T21:51:39.039Z,31.90
2017-07-14T21:54:07.706Z,28.30
2017-07-14T21:56:36.058Z,30.73
2017-07-14T21:59:04.407Z,33.10
2017-07-14T22:01:33.269Z,30.50
2017-07-14T22:04:01.635Z,32.83
2017-07-14T22:06:29.985Z,40.77
2017-07-14T22:08:58.818Z,31.80
2017-07-14T22:11:27.172Z,29.63
2017-07-14T22:13:56.283Z,39.73
2017-07-14T22:16:24.957Z,33.03
2017-07-14T22:18:53.312Z,31.30
2017-07-14T22:21:21.661Z,41.13
2017-07-14T22:23:50.715Z,34.20
2017-07-14T22:26:19.054Z,32.37
2017-07-14T22:28:47.431Z,38.60
2017-07-14T22:31:16.353Z,34.47
2017-07-14T22:33:44.696Z,31.87
2017-07-14T22:36:13.825Z,40.50
2017-07-14T22:38:42.481Z,33.30
2017-07-14T22:41:10.821Z,38.90
2017-07-14T22:43:39.154Z,33.97
2017-07-14T22:46:08.012Z,38.13
2017-07-14T22:48:36.352Z,27.37
2017-07-14T22:51:04.718Z,33.20
2017-07-14T22:53:34.281Z,35.13
2017-07-14T22:56:02.606Z,30.93
2017-07-14T22:58:30.946Z,33.90
2017-07-14T23:00:59.595Z,32.30
2017-07-14T23:03:27.949Z,37.80
2017-07-14T23:05:56.286Z,30.87
2017-07-14T23:08:25.356Z,29.43
2017-07-14T23:10:53.694Z,32.77
2017-07-14T23:13:22.063Z,34.83
2017-07-14T23:15:51.513Z,33.63
2017-07-14T23:18:19.855Z,34.03
2017-07-14T23:20:48.951Z,38.73
2017-07-14T23:23:17.741Z,30.63
2017-07-14T23:25:46.079Z,31.07
2017-07-14T23:28:14.421Z,35.30
2017-07-14T23:30:43.274Z,34.23
2017-07-14T23:33:11.621Z,31.87
2017-07-14T23:35:39.957Z,31.67
2017-07-14T23:38:08.835Z,35.50
2017-07-14T23:40:37.165Z,35.80
2017-07-14T23:43:05.507Z,37.87
2017-07-14T23:45:34.190Z,33.33
2017-07-14T23:48:03.294Z,33.97
2017-07-14T23:50:31.635Z,35.83
2017-07-14T23:53:00.370Z,30.70
2017-07-14T23:55:28.791Z,34.90
2017-07-14T23:57:57.123Z,30.63
